createdAt,value
2022-12-09T00:01:24.294Z,14.80
2022-12-09T00:03:52.939Z,17.33
2022-12-09T00:06:23.900Z,17.80
2022-12-09T00:08:53.647Z,15.67
2022-12-09T00:11:23.819Z,16.20
2022-12-09T00:13:54.229Z,17.00
2022-12-09T00:16:25.311Z,15.57
2022-12-09T00:18:54.152Z,14.63
2022-12-09T00:21:25.463Z,16.03
2022-12-09T00:23:55.886Z,16.07
2022-12-09T00:26:26.394Z,15.73
2022-12-09T00:28:56.733Z,15.77
2022-12-09T00:31:32.443Z,15.73
2022-12-09T00:34:04.502Z,15.40
2022-12-09T00:36:33.432Z,15.63
2022-12-09T00:39:02.075Z,15.00
2022-12-09T00:41:32.102Z,17.47
2022-12-09T00:44:00.752Z,16.47
2022-12-09T00:46:30.735Z,16.27
2022-12-09T00:48:59.695Z,16.13
2022-12-09T00:51:28.412Z,15.83
2022-12-09T00:53:57.713Z,15.77
2022-12-09T00:56:30.083Z,15.53
2022-12-09T00:59:00.134Z,17.80
2022-12-09T01:01:30.466Z,17.07
2022-12-09T01:03:59.220Z,17.23
2022-12-09T01:06:28.260Z,17.30
2022-12-09T01:08:57.530Z,17.53
2022-12-09T01:11:29.456Z,16.50
2022-12-09T01:14:01.462Z,17.77
2022-12-09T01:16:34.934Z,16.63
2022-12-09T01:19:06.414Z,18.40
2022-12-09T01:21:35.624Z,17.87
2022-12-09T01:24:10.133Z,18.17
2022-12-09T01:26:39.483Z,17.10
2022-12-09T01:29:07.947Z,16.57
2022-12-09T01:31:38.899Z,16.93
2022-12-09T01:34:07.594Z,17.50
2022-12-09T01:36:36.202Z,18.37
2022-12-09T01:39:06.510Z,18.27
2022-12-09T01:41:36.113Z,15.67
2022-12-09T01:44:19.657Z,18.70
2022-12-09T01:46:50.347Z,17.63
2022-12-09T01:49:25.218Z,16.50
2022-12-09T01:52:04.591Z,17.93
2022-12-09T01:54:35.281Z,17.47
2022-12-09T01:57:06.591Z,19.10
2022-12-09T01:59:37.827Z,18.90
2022-12-09T02:02:10.844Z,17.77
2022-12-09T02:04:46.221Z,18.17
2022-12-09T02:07:19.855Z,17.67
2022-12-09T02:09:53.466Z,17.40
2022-12-09T02:12:39.946Z,18.50
2022-12-09T02:15:15.132Z,18.03
2022-12-09T02:17:53.846Z,18.07
2022-12-09T02:20:30.545Z,18.40
2022-12-09T02:23:07.567Z,18.93
2022-12-09T02:25:45.344Z,17.50
2022-12-09T02:28:41.606Z,18.40
2022-12-09T02:31:25.746Z,16.83
2022-12-09T02:34:15.510Z,16.60
2022-12-09T02:36:56.647Z,17.10
2022-12-09T02:39:33.586Z,16.70
2022-12-09T02:42:06.689Z,17.17
2022-12-09T02:44:40.723Z,18.40
2022-12-09T02:47:18.422Z,18.43
2022-12-09T02:49:52.953Z,17.03
2022-12-09T02:52:24.177Z,18.70
2022-12-09T02:54:54.781Z,18.00
2022-12-09T02:57:27.490Z,16.63
2022-12-09T02:59:56.022Z,18.70
2022-12-09T03:02:30.526Z,19.50
2022-12-09T03:05:14.608Z,18.90
2022-12-09T03:07:52.677Z,17.70
2022-12-09T03:10:27.697Z,21.17
2022-12-09T03:13:05.107Z,18.30
2022-12-09T03:15:36.684Z,18.10
2022-12-09T03:18:12.730Z,17.07
2022-12-09T03:20:45.624Z,19.27
2022-12-09T03:23:18.599Z,17.90
2022-12-09T03:25:52.279Z,17.67
2022-12-09T03:28:25.548Z,20.50
2022-12-09T03:31:00.802Z,19.80
2022-12-09T03:33:31.798Z,18.40
2022-12-09T03:36:07.889Z,18.20
2022-12-09T03:38:39.569Z,17.40
2022-12-09T03:41:28.766Z,16.50
2022-12-09T03:44:03.339Z,16.37
2022-12-09T03:46:32.241Z,18.83
2022-12-09T03:49:01.737Z,16.33
2022-12-09T03:51:37.560Z,16.90
2022-12-09T03:54:15.344Z,18.43
2022-12-09T03:56:50.567Z,15.70
2022-12-09T03:59:21.924Z,18.87
2022-12-09T04:01:51.172Z,17.90
2022-12-09T04:04:19.839Z,17.20
2022-12-09T04:06:52.377Z,18.87
2022-12-09T04:09:21.023Z,16.97
2022-12-09T04:11:49.908Z,17.37
2022-12-09T04:14:18.442Z,17.90
2022-12-09T04:16:47.777Z,15.50
2022-12-09T04:19:17.415Z,17.90
2022-12-09T04:21:46.010Z,16.93
2022-12-09T04:24:16.137Z,17.43
2022-12-09T04:26:45.254Z,15.43
2022-12-09T04:29:14.804Z,16.40
2022-12-09T04:31:44.667Z,15.17
2022-12-09T04:34:14.931Z,16.30
2022-12-09T04:36:43.759Z,16.67
2022-12-09T04:39:12.148Z,16.13
2022-12-09T04:41:42.568Z,15.57
2022-12-09T04:44:11.339Z,16.63
2022-12-09T04:46:39.747Z,17.40
2022-12-09T04:49:08.315Z,15.10
2022-12-09T04:51:39.965Z,17.20
2022-12-09T04:54:13.691Z,16.13
2022-12-09T04:56:43.912Z,15.73
2022-12-09T04:59:12.830Z,16.70
2022-12-09T05:01:41.582Z,15.33
2022-12-09T05:04:10.347Z,15.97
2022-12-09T05:06:39.419Z,15.57
2022-12-09T05:09:13.835Z,15.17
2022-12-09T05:11:44.318Z,14.93
2022-12-09T05:14:13.079Z,15.90
2022-12-09T05:16:42.190Z,14.50
2022-12-09T05:19:11.642Z,14.97
2022-12-09T05:21:40.661Z,16.70
2022-12-09T05:24:09.451Z,14.83
2022-12-09T05:26:38.468Z,14.03
2022-12-09T05:29:08.691Z,14.80
2022-12-09T05:31:37.271Z,13.90
2022-12-09T05:34:06.991Z,14.07
2022-12-09T05:36:35.938Z,15.63
2022-12-09T05:39:06.059Z,15.23
2022-12-09T05:41:37.359Z,15.03
2022-12-09T05:44:07.592Z,16.40
2022-12-09T05:46:36.231Z,15.37
2022-12-09T05:49:05.112Z,15.00
2022-12-09T05:51:34.544Z,14.40
2022-12-09T05:54:07.373Z,15.50
2022-12-09T05:56:36.325Z,15.17
2022-12-09T05:59:05.085Z,15.63
2022-12-09T06:01:35.321Z,16.03
2022-12-09T06:04:04.138Z,15.35
2022-12-09T06:06:33.283Z,17.00
2022-12-09T06:09:03.743Z,15.43
2022-12-09T06:11:34.135Z,15.00
2022-12-09T06:14:02.898Z,15.60
2022-12-09T06:16:31.506Z,16.50
2022-12-09T06:19:02.125Z,15.27
2022-12-09T06:21:30.668Z,16.43
2022-12-09T06:23:59.428Z,17.47
2022-12-09T06:26:30.761Z,16.60
2022-12-09T06:29:00.634Z,17.13
2022-12-09T06:31:30.535Z,15.80
2022-12-09T06:34:01.358Z,16.33
2022-12-09T06:36:32.268Z,16.63
2022-12-09T06:39:10.122Z,16.07
2022-12-09T06:41:41.414Z,15.63
2022-12-09T06:44:11.971Z,16.20
2022-12-09T06:46:42.178Z,17.23
2022-12-09T06:49:12.741Z,16.00
2022-12-09T06:51:42.243Z,16.07
2022-12-09T06:54:11.100Z,16.03
2022-12-09T06:56:39.975Z,14.88
2022-12-09T06:59:10.008Z,16.37
2022-12-09T07:01:40.023Z,15.73
2022-12-09T07:04:09.411Z,15.48
2022-12-09T07:06:42.123Z,16.47
2022-12-09T07:09:15.939Z,16.70
2022-12-09T07:11:47.255Z,15.85
2022-12-09T07:14:18.390Z,14.38
2022-12-09T07:16:47.996Z,15.55
2022-12-09T07:19:19.191Z,15.35
2022-12-09T07:21:50.459Z,15.20
2022-12-09T07:24:21.323Z,15.10
2022-12-09T07:26:50.784Z,14.63
2022-12-09T07:29:20.059Z,14.23
2022-12-09T07:31:49.600Z,15.77
2022-12-09T07:34:18.538Z,16.17
2022-12-09T07:36:48.837Z,15.15
2022-12-09T07:39:19.296Z,14.35
2022-12-09T07:41:52.620Z,14.23
2022-12-09T07:44:21.671Z,16.05
2022-12-09T07:46:50.691Z,13.50
2022-12-09T07:49:19.408Z,15.48
2022-12-09T07:51:50.137Z,12.93
2022-12-09T07:54:20.518Z,14.70
2022-12-09T07:56:50.008Z,12.82
2022-12-09T07:59:19.095Z,13.77
2022-12-09T08:01:48.690Z,12.70
2022-12-09T08:04:17.420Z,14.00
2022-12-09T08:06:46.556Z,13.90
2022-12-09T08:09:17.036Z,14.50
2022-12-09T08:11:46.314Z,15.07
2022-12-09T08:14:16.846Z,14.25
2022-12-09T08:16:45.594Z,14.55
2022-12-09T08:19:14.833Z,15.93
2022-12-09T08:21:47.294Z,16.90
2022-12-09T08:24:19.869Z,17.25
2022-12-09T08:26:52.802Z,18.50
2022-12-09T08:29:21.660Z,16.60
2022-12-09T08:31:50.548Z,15.75
2022-12-09T08:34:19.845Z,16.87
2022-12-09T08:36:48.379Z,16.58
2022-12-09T08:39:18.991Z,15.25
2022-12-09T08:41:47.858Z,16.90
2022-12-09T08:44:20.268Z,15.52
2022-12-09T08:46:51.924Z,15.83
2022-12-09T08:49:24.295Z,14.32
2022-12-09T08:51:54.674Z,16.90
2022-12-09T08:54:24.970Z,17.53
2022-12-09T08:56:56.265Z,18.15
2022-12-09T08:59:25.403Z,17.47
2022-12-09T09:01:54.490Z,19.15
2022-12-09T09:04:24.601Z,17.30
2022-12-09T09:06:55.548Z,16.10
2022-12-09T09:09:25.529Z,15.90
2022-12-09T09:11:54.699Z,15.10
2022-12-09T09:14:23.598Z,13.50
2022-12-09T09:16:52.694Z,14.10
2022-12-09T09:19:25.681Z,12.50
2022-12-09T09:21:56.382Z,14.67
2022-12-09T09:24:26.975Z,15.67
2022-12-09T09:26:56.833Z,15.57
2022-12-09T09:29:26.304Z,15.80
2022-12-09T09:31:55.614Z,15.60
2022-12-09T09:34:26.088Z,16.90
2022-12-09T09:36:55.758Z,16.00
2022-12-09T09:39:26.495Z,18.93
2022-12-09T09:41:58.755Z,18.27
2022-12-09T09:44:36.768Z,19.40
2022-12-09T09:47:16.271Z,18.97
2022-12-09T09:49:51.721Z,17.50
2022-12-09T09:52:22.626Z,19.83
2022-12-09T09:54:53.383Z,18.77
2022-12-09T09:57:31.371Z,19.63
2022-12-09T10:00:11.686Z,19.87
2022-12-09T10:03:05.222Z,19.27
2022-12-09T10:05:38.542Z,20.90
2022-12-09T10:08:29.035Z,20.67
2022-12-09T10:11:17.146Z,21.50
2022-12-09T10:14:00.450Z,19.97
2022-12-09T10:16:43.795Z,19.67
2022-12-09T10:19:22.808Z,20.63
2022-12-09T10:21:55.597Z,18.87
2022-12-09T10:24:31.851Z,20.50
2022-12-09T10:27:15.461Z,21.10
2022-12-09T10:29:57.573Z,19.10
2022-12-09T10:32:30.739Z,20.97
2022-12-09T10:35:00.562Z,19.93
2022-12-09T10:37:33.009Z,21.27
2022-12-09T10:40:18.088Z,21.23
2022-12-09T10:43:08.834Z,19.77
2022-12-09T10:46:16.925Z,19.67
2022-12-09T10:48:39.616Z,20.73
2022-12-09T10:51:16.624Z,21.50
2022-12-09T10:57:09.664Z,20.30
2022-12-09T10:59:58.737Z,19.23
2022-12-09T11:02:29.430Z,19.70
2022-12-09T11:05:22.680Z,20.17
2022-12-09T11:07:53.510Z,19.40
2022-12-09T11:10:25.876Z,21.30
2022-12-09T11:13:11.027Z,22.90
2022-12-09T11:15:48.826Z,19.43
2022-12-09T11:18:22.959Z,17.40
2022-12-09T11:20:59.819Z,21.20
2022-12-09T11:23:30.047Z,21.00
2022-12-09T11:26:02.550Z,22.67
2022-12-09T11:28:37.731Z,22.00
2022-12-09T11:31:33.521Z,43.50
2022-12-09T11:34:06.447Z,24.10
2022-12-09T11:36:44.056Z,20.57
2022-12-09T11:39:24.807Z,20.43
2022-12-09T11:42:18.169Z,20.97
2022-12-09T11:44:58.001Z,22.90
2022-12-09T11:47:50.745Z,20.33
2022-12-09T11:50:28.136Z,20.87
2022-12-09T11:53:18.024Z,21.77
2022-12-09T11:55:54.322Z,21.83
2022-12-09T11:58:28.837Z,22.23
2022-12-09T12:01:04.234Z,22.87
2022-12-09T12:03:40.400Z,22.30
2022-12-09T12:06:18.988Z,21.40
2022-12-09T12:08:52.685Z,21.50
2022-12-09T12:11:28.296Z,18.87
2022-12-09T12:14:05.490Z,21.07
2022-12-09T12:16:47.521Z,19.00
2022-12-09T12:19:23.414Z,20.03
2022-12-09T12:22:19.858Z,20.70
2022-12-09T12:25:14.035Z,20.00
2022-12-09T12:28:06.800Z,21.13
2022-12-09T12:30:46.307Z,21.13
2022-12-09T12:36:50.253Z,20.53
2022-12-09T12:39:39.038Z,20.33
2022-12-09T12:42:25.647Z,21.67
2022-12-09T12:45:20.629Z,21.00
2022-12-09T12:47:58.404Z,22.50
2022-12-09T12:50:46.169Z,21.20
2022-12-09T12:53:31.843Z,22.77
2022-12-09T12:56:07.084Z,19.93
2022-12-09T12:58:57.272Z,20.93
2022-12-09T13:01:31.337Z,20.20
2022-12-09T13:04:18.056Z,21.37
2022-12-09T13:06:57.746Z,22.87
2022-12-09T13:09:35.662Z,20.90
2022-12-09T13:12:13.818Z,20.00
2022-12-09T13:14:52.874Z,19.50
2022-12-09T13:17:26.999Z,20.90
2022-12-09T13:19:59.833Z,20.57
2022-12-09T13:22:40.753Z,20.13
2022-12-09T13:25:22.256Z,21.00
2022-12-09T13:28:00.986Z,19.57
2022-12-09T13:30:38.914Z,20.27
2022-12-09T13:33:41.880Z,20.17
2022-12-09T13:36:22.050Z,21.43
2022-12-09T13:38:52.432Z,19.27
2022-12-09T13:42:06.004Z,18.67
2022-12-09T13:44:38.767Z,19.87
2022-12-09T13:55:56.551Z,17.53
2022-12-09T13:58:51.138Z,18.97
2022-12-09T14:01:31.354Z,18.27
2022-12-09T14:04:13.759Z,19.20
2022-12-09T14:06:57.424Z,19.87
2022-12-09T14:09:37.706Z,18.80
2022-12-09T14:12:11.977Z,18.30
2022-12-09T14:14:51.767Z,17.20
2022-12-09T14:18:03.843Z,17.37
2022-12-09T14:33:23.729Z,19.57
2022-12-09T14:36:57.991Z,17.90
2022-12-09T14:39:32.534Z,17.10
2022-12-09T14:42:04.888Z,17.13
2022-12-09T14:44:41.884Z,16.90
2022-12-09T14:47:19.728Z,16.93
2022-12-09T14:49:58.651Z,15.77
2022-12-09T14:52:32.571Z,16.50
2022-12-09T14:55:04.021Z,17.30
2022-12-09T14:57:38.580Z,16.27
2022-12-09T15:00:25.874Z,18.17
2022-12-09T15:03:30.823Z,17.07
2022-12-09T15:05:59.388Z,16.57
2022-12-09T15:08:32.014Z,18.93
2022-12-09T15:11:05.618Z,15.57
2022-12-09T15:13:34.930Z,15.27
2022-12-09T15:16:03.993Z,18.10
2022-12-09T15:18:35.058Z,17.00
2022-12-09T15:21:03.728Z,17.00
2022-12-09T15:23:36.834Z,15.77
2022-12-09T15:26:10.841Z,16.23
2022-12-09T15:28:39.344Z,16.37
2022-12-09T15:31:18.631Z,17.00
2022-12-09T15:34:01.547Z,15.43
2022-12-09T15:36:35.305Z,14.73
2022-12-09T15:39:11.203Z,16.97
2022-12-09T15:42:02.984Z,16.50
2022-12-09T15:44:38.082Z,16.17
2022-12-09T15:47:24.065Z,15.93
2022-12-09T15:49:58.520Z,16.50
2022-12-09T15:52:32.543Z,15.75
2022-12-09T15:55:07.054Z,15.93
2022-12-09T16:03:20.669Z,15.55
2022-12-09T16:05:54.107Z,14.55
2022-12-09T16:08:23.667Z,17.05
2022-12-09T16:10:54.224Z,16.30
2022-12-09T16:13:22.838Z,20.97
2022-12-09T16:15:54.682Z,19.23
2022-12-09T16:18:26.409Z,19.02
2022-12-09T16:21:27.590Z,17.30
2022-12-09T16:24:06.942Z,19.75
2022-12-09T16:26:40.356Z,18.98
2022-12-09T16:29:20.823Z,19.15
2022-12-09T16:32:04.696Z,17.08
2022-12-09T16:34:33.197Z,17.42
2022-12-09T16:37:06.596Z,15.98
2022-12-09T16:39:41.973Z,14.13
2022-12-09T16:42:25.096Z,17.15
2022-12-09T16:44:53.477Z,16.75
2022-12-09T16:47:24.394Z,15.70
2022-12-09T16:49:53.454Z,16.65
2022-12-09T16:52:25.372Z,15.98
2022-12-09T16:54:53.811Z,16.65
2022-12-09T16:57:23.584Z,15.80
2022-12-09T16:59:53.447Z,15.15
2022-12-09T17:02:31.997Z,14.50
2022-12-09T17:05:01.647Z,15.93
2022-12-09T17:07:30.230Z,16.65
2022-12-09T17:09:58.739Z,17.38
2022-12-09T17:12:28.521Z,16.42
2022-12-09T17:14:56.875Z,18.75
2022-12-09T17:17:25.230Z,19.17
2022-12-09T17:19:53.893Z,21.50
2022-12-09T17:22:22.569Z,22.13
2022-12-09T17:24:51.301Z,20.08
2022-12-09T17:27:19.978Z,19.63
2022-12-09T17:29:49.701Z,19.88
2022-12-09T17:32:18.247Z,19.38
2022-12-09T17:34:46.653Z,18.45
2022-12-09T17:37:15.057Z,18.33
2022-12-09T17:39:43.614Z,18.50
2022-12-09T17:42:12.121Z,18.48
2022-12-09T17:44:40.931Z,16.67
2022-12-09T17:47:11.281Z,16.88
2022-12-09T17:49:39.822Z,18.67
2022-12-09T17:52:08.753Z,19.00
2022-12-09T17:54:37.282Z,19.10
2022-12-09T17:57:05.673Z,18.80
2022-12-09T17:59:34.005Z,18.90
2022-12-09T18:02:03.654Z,19.48
2022-12-09T18:04:33.974Z,18.73
2022-12-09T18:07:02.608Z,17.40
2022-12-09T18:09:31.373Z,19.27
2022-12-09T18:11:59.709Z,17.38
2022-12-09T18:14:29.437Z,17.48
2022-12-09T18:16:57.830Z,16.50
2022-12-09T18:19:27.209Z,18.08
2022-12-09T18:21:57.601Z,18.73
2022-12-09T18:24:26.132Z,15.77
2022-12-09T18:26:54.557Z,19.02
2022-12-09T18:29:23.783Z,16.70
2022-12-09T18:31:55.886Z,18.52
2022-12-09T18:34:24.792Z,19.92
2022-12-09T18:36:53.322Z,20.23
2022-12-09T18:39:23.688Z,20.23
2022-12-09T18:41:52.018Z,21.70
2022-12-09T18:44:20.823Z,34.50
2022-12-09T18:46:51.545Z,25.35
2022-12-09T18:49:22.382Z,26.90
2022-12-09T18:51:53.383Z,25.80
2022-12-09T18:54:27.403Z,20.90
2022-12-09T18:56:57.090Z,23.10
2022-12-09T18:59:26.135Z,22.48
2022-12-09T19:01:55.305Z,22.10
2022-12-09T19:04:26.259Z,20.27
2022-12-09T19:06:57.280Z,18.98
2022-12-09T19:09:31.919Z,20.98
2022-12-09T19:12:23.113Z,21.58
2022-12-09T19:14:50.461Z,20.58
2022-12-09T19:17:19.125Z,22.50
2022-12-09T19:19:48.481Z,22.25
2022-12-09T19:22:17.037Z,18.38
2022-12-09T19:24:47.255Z,18.13
2022-12-09T19:27:15.691Z,20.00
2022-12-09T19:29:44.043Z,17.42
2022-12-09T19:32:36.488Z,17.15
2022-12-09T19:35:00.829Z,16.65
2022-12-09T19:37:29.165Z,19.00
2022-12-09T19:39:59.031Z,17.70
2022-12-09T19:42:27.453Z,17.30
2022-12-09T19:45:06.428Z,18.77
2022-12-09T19:47:37.542Z,18.00
2022-12-09T19:50:07.991Z,15.77
2022-12-09T19:52:36.862Z,18.67
2022-12-09T19:55:08.416Z,19.70
2022-12-09T19:57:36.820Z,17.83
2022-12-09T20:00:06.540Z,18.80
2022-12-09T20:02:36.362Z,18.30
2022-12-09T20:05:06.361Z,19.35
2022-12-09T20:07:34.740Z,18.35
2022-12-09T20:10:03.496Z,20.50
2022-12-09T20:12:36.973Z,20.27
2022-12-09T20:15:06.880Z,18.90
2022-12-09T20:17:35.408Z,19.35
2022-12-09T20:20:04.098Z,20.02
2022-12-09T20:22:32.477Z,17.70
2022-12-09T20:25:00.829Z,21.05
2022-12-09T20:27:29.233Z,18.48
2022-12-09T20:29:58.974Z,22.55
2022-12-09T20:32:30.302Z,20.58
2022-12-09T20:35:00.623Z,19.58
2022-12-09T20:37:33.191Z,20.13
2022-12-09T20:40:01.568Z,62.50
2022-12-09T20:42:29.952Z,33.00
2022-12-09T20:45:00.047Z,27.48
2022-12-09T20:47:28.560Z,23.45
2022-12-09T20:49:57.054Z,21.85
2022-12-09T20:52:25.650Z,20.17
2022-12-09T20:54:53.953Z,18.05
2022-12-09T20:57:22.415Z,17.10
2022-12-09T20:59:51.125Z,19.10
2022-12-09T21:02:21.220Z,20.73
2022-12-09T21:04:51.140Z,24.05
2022-12-09T21:07:19.522Z,21.80
2022-12-09T21:09:47.858Z,18.10
2022-12-09T21:12:16.180Z,21.02
2022-12-09T21:14:44.847Z,19.42
2022-12-09T21:17:13.248Z,18.33
2022-12-09T21:19:43.007Z,16.95
2022-12-09T21:22:11.364Z,17.35
2022-12-09T21:24:39.746Z,18.73
2022-12-09T21:27:08.134Z,18.02
2022-12-09T21:29:37.009Z,24.02
2022-12-09T21:32:05.582Z,23.35
2022-12-09T21:34:34.388Z,18.20
2022-12-09T21:37:04.421Z,16.50
2022-12-09T21:39:33.545Z,19.88
2022-12-09T21:42:01.919Z,18.52
2022-12-09T21:44:30.678Z,18.42
2022-12-09T21:46:59.060Z,18.58
2022-12-09T21:49:29.667Z,18.67
2022-12-09T21:51:58.080Z,21.08
2022-12-09T21:54:27.937Z,21.90
2022-12-09T21:56:56.262Z,18.63
2022-12-09T21:59:24.669Z,18.73
2022-12-09T22:01:53.109Z,17.20
2022-12-09T22:04:21.591Z,17.80
2022-12-09T22:06:51.856Z,17.75
2022-12-09T22:09:21.672Z,19.25
2022-12-09T22:11:51.489Z,17.40
2022-12-09T22:14:19.865Z,18.50
2022-12-09T22:16:48.316Z,20.88
2022-12-09T22:19:21.167Z,19.00
2022-12-09T22:21:50.696Z,18.48
2022-12-09T22:24:20.106Z,18.10
2022-12-09T22:26:50.105Z,21.17
2022-12-09T22:29:19.188Z,20.17
2022-12-09T22:31:48.310Z,17.33
2022-12-09T22:34:19.337Z,17.45
2022-12-09T22:36:49.634Z,18.80
2022-12-09T22:39:21.597Z,17.95
2022-12-09T22:41:51.833Z,18.65
2022-12-09T22:44:21.695Z,19.02
2022-12-09T22:46:50.372Z,18.67
2022-12-09T22:49:19.786Z,19.55
2022-12-09T22:51:48.662Z,19.73
2022-12-09T22:54:17.232Z,17.55
2022-12-09T22:56:46.244Z,19.80
2022-12-09T22:59:17.467Z,29.85
2022-12-09T23:01:51.666Z,30.52
2022-12-09T23:04:22.764Z,19.40
2022-12-09T23:06:52.073Z,24.73
2022-12-09T23:09:23.180Z,24.17
2022-12-09T23:11:52.605Z,23.05
2022-12-09T23:14:22.371Z,20.38
2022-12-09T23:16:50.802Z,21.90
2022-12-09T23:19:19.289Z,19.20
2022-12-09T23:21:47.756Z,20.45
2022-12-09T23:24:24.608Z,20.60
2022-12-09T23:26:56.790Z,18.60
2022-12-09T23:29:26.715Z,21.52
2022-12-09T23:31:55.061Z,20.10
2022-12-09T23:34:23.806Z,18.65
2022-12-09T23:36:52.176Z,20.17
2022-12-09T23:39:20.914Z,21.60
2022-12-09T23:41:49.559Z,22.83
2022-12-09T23:44:19.745Z,23.52
2022-12-09T23:46:49.800Z,23.92
2022-12-09T23:49:18.926Z,25.67
2022-12-09T23:51:47.959Z,21.20
2022-12-09T23:54:18.835Z,22.15
2022-12-09T23:56:50.738Z,20.73
2022-12-09T23:59:21.652Z,20.27
